Napa — WDE8110 — position and weather

sailwx.info

Track history (hours):
 
Tides and Currents Weather Stations Pressure Air Temp Water Temp Dewpoint Dewpoint Depression Visibility Wind Speed Wind Dir Waves Ship Positions

Napa

Owner: Golden Gate Bridge Hwy. and Transportation District, San Francisco, CA. More information available from US FCC via Universal Licensing System and Coast Guard Vessel Documentation Center.

Last reported at 2017-Oct-17 02:01 UTC. Time now 2017-Oct-17 02:21 UTC.
Position N 37°52' W 122°25'.

Length 38 m; draft 0.15 m.

Type: Passenger vessel. MMSI: 36677150.

Date/timePositionNaut miles runAvg speedWind from/ knotsBaromVisibWave heightAir tempDewpointWater temp
2017-Oct-17 02:01N 37°52' W 122°25'713.5
2017-Oct-17 01:30N 37°57' W 122°30'1020.8
2017-Oct-17 01:00N 37°48' W 122°24'510.0
2017-Oct-17 00:31N 37°53' W 122°25'611.5
2017-Oct-17 00:00N 37°57' W 122°30'1020.9
2017-Oct-16 23:31N 37°48' W 122°24'4 7.3
2017-Oct-16 23:01N 37°51' W 122°25'714.1
2017-Oct-16 22:30N 37°57' W 122°30'1021.0
2017-Oct-16 22:01N 37°48' W 122°24'714.3
2017-Oct-16 21:31N 37°54' W 122°27'4 7.2
2017-Oct-16 21:00N 37°57' W 122°31'0 0.0
2017-Oct-16 20:30N 37°57' W 122°31'0 0.0
2017-Oct-16 20:00N 37°57' W 122°31'0 0.0
2017-Oct-16 19:30N 37°57' W 122°31'0 0.0
2017-Oct-16 19:00N 37°57' W 122°31'0 0.0
2017-Oct-16 18:30N 37°57' W 122°31'1020.8
2017-Oct-16 18:00N 37°48' W 122°23'4 8.7
2017-Oct-16 17:31N 37°52' W 122°25'612.4
2017-Oct-16 17:00N 37°57' W 122°30'3 5.9
2017-Oct-16 16:30N 37°55' W 122°27'816.0
2017-Oct-16 16:00N 37°48' W 122°24'918.8
2017-Oct-16 15:31N 37°56' W 122°29'1 1.2
2017-Oct-16 15:00N 37°56' W 122°30'1 0.7
2017-Oct-16 14:00N 37°57' W 122°30'917.2
2017-Oct-16 13:31N 37°50' W 122°24'713.2
2017-Oct-16 13:01N 37°56' W 122°28'2 4.4
2017-Oct-16 12:30N 37°57' W 122°31'  
2017-Oct-14 05:04N 37°57' W 122°30'0 8.2
2017-Oct-14 05:00N 37°56' W 122°30'1019.9
2017-Oct-14 04:31N 37°48' W 122°24'1019.8
2017-Oct-14 03:59N 37°57' W 122°30'4 9.1
2017-Oct-14 03:31N 37°54' W 122°26'612.5
2017-Oct-14 03:00N 37°48' W 122°23'1020.5
2017-Oct-14 02:30N 37°57' W 122°30'0 0.2
2017-Oct-14 02:00N 37°57' W 122°30'1021.3
2017-Oct-14 01:30N 37°48' W 122°24'4 7.4
2017-Oct-14 01:01N 37°51' W 122°25'713.0
2017-Oct-14 00:30N 37°56' W 122°30'1020.7
2017-Oct-14 00:00N 37°48' W 122°24'611.1
2017-Oct-13 23:30N 37°53' W 122°26'510.2
2017-Oct-13 23:01N 37°57' W 122°30'1020.7
2017-Oct-13 22:31N 37°48' W 122°24'1019.7
2017-Oct-13 22:00N 37°56' W 122°30'1 1.3
2017-Oct-13 21:30N 37°57' W 122°30'0 0.0
2017-Oct-13 21:00N 37°57' W 122°30'1020.4
2017-Oct-13 20:31N 37°48' W 122°23'4 8.6
2017-Oct-13 20:00N 37°52' W 122°25'612.0
2017-Oct-13 19:30N 37°57' W 122°30'1019.2
2017-Oct-13 19:00N 37°49' W 122°23'3 6.5
2017-Oct-13 18:30N 37°52' W 122°25'612.8
2017-Oct-13 18:00N 37°57' W 122°30'2 5.0
2017-Oct-13 17:31N 37°55' W 122°28'816.6
2017-Oct-13 17:01N 37°48' W 122°24'713.3
2017-Oct-13 16:31N 37°54' W 122°27'4 7.8
2017-Oct-13 16:00N 37°57' W 122°30'1020.9
2017-Oct-13 15:30N 37°48' W 122°24'1018.3
2017-Oct-13 14:58N 37°56' W 122°30'4 8.4
2017-Oct-13 14:30N 37°54' W 122°26'4 9.0
2017-Oct-13 14:01N 37°50' W 122°24'9 0.8
2017-Oct-13 02:49N 37°57' W 122°30'824.8
2017-Oct-13 02:31N 37°51' W 122°24'2 4.7
2017-Oct-13 02:01N 37°53' W 122°26'611.2
2017-Oct-13 01:30N 37°57' W 122°30'1020.9
2017-Oct-13 01:00N 37°48' W 122°24'5 9.8
2017-Oct-13 00:31N 37°52' W 122°25'611.3
2017-Oct-13 00:00N 37°57' W 122°30'1021.0
2017-Oct-12 23:30N 37°48' W 122°24'5 9.4
2017-Oct-12 23:00N 37°52' W 122°25'611.9
2017-Oct-12 22:30N 37°57' W 122°30'1021.1
2017-Oct-12 22:00N 37°48' W 122°24'714.0
2017-Oct-12 21:30N 37°54' W 122°27'4 7.5
2017-Oct-12 21:00N 37°57' W 122°31'0 0.0
2017-Oct-12 20:30N 37°57' W 122°31'0 0.0
2017-Oct-12 20:00N 37°57' W 122°31'0 0.0
2017-Oct-12 19:30N 37°57' W 122°31'0 0.0
2017-Oct-12 19:00N 37°57' W 122°31'0 0.1
2017-Oct-12 18:30N 37°57' W 122°30'1021.1
2017-Oct-12 18:01N 37°48' W 122°23'5 9.9
2017-Oct-12 17:31N 37°53' W 122°25'611.3
2017-Oct-12 17:00N 37°57' W 122°30'3 5.6
2017-Oct-12 16:31N 37°55' W 122°27'816.2
2017-Oct-12 16:00N 37°48' W 122°24'1019.1
2017-Oct-12 15:30N 37°56' W 122°29'0 0.1
2017-Oct-12 15:01N 37°56' W 122°29'918.9
2017-Oct-12 14:30N 37°48' W 122°23'1020.8
2017-Oct-12 14:00N 37°57' W 122°30'1020.4
2017-Oct-12 13:31N 37°48' W 122°23'816.1
2017-Oct-12 13:00N 37°55' W 122°28'2 4.8
2017-Oct-12 12:31N 37°57' W 122°30'0 0.0
2017-Oct-12 05:15N 37°57' W 122°30'311.7
2017-Oct-12 05:01N 37°55' W 122°27'714.0
2017-Oct-12 04:30N 37°49' W 122°23'918.0
2017-Oct-12 04:00N 37°56' W 122°30'2 4.4
2017-Oct-12 03:31N 37°55' W 122°28'815.3
2017-Oct-12 03:00N 37°48' W 122°23'1020.3
2017-Oct-12 02:30N 37°57' W 122°30'0 0.5
2017-Oct-12 02:01N 37°57' W 122°30'1020.5
2017-Oct-12 01:30N 37°48' W 122°24'4 8.5
2017-Oct-12 01:01N 37°52' W 122°25'713.0
2017-Oct-12 00:30N 37°57' W 122°30'1020.7
2017-Oct-12 00:00N 37°48' W 122°24'4 8.6
2017-Oct-11 23:31N 37°52' W 122°25'612.4
2017-Oct-11 23:00N 37°57' W 122°30'1020.8
2017-Oct-11 22:30N 37°48' W 122°24'1019.7
2017-Oct-11 22:00N 37°56' W 122°30'1 1.4
2017-Oct-11 21:31N 37°57' W 122°30'0 0.0
2017-Oct-11 21:01N 37°57' W 122°30'1020.7
2017-Oct-11 20:31N 37°48' W 122°23'5 9.5
2017-Oct-11 20:01N 37°52' W 122°25'611.6
2017-Oct-11 19:30N 37°57' W 122°30'1020.8
2017-Oct-11 19:01N 37°48' W 122°23'4 8.6
2017-Oct-11 18:31N 37°52' W 122°25'612.1
2017-Oct-11 18:00N 37°57' W 122°31'2 4.4
2017-Oct-11 17:31N 37°56' W 122°28'917.3
2017-Oct-11 17:00N 37°48' W 122°24'0 0.0
2017-Oct-11 00:00N 37°48' W 122°24'4 8.7
2017-Oct-10 23:31N 37°52' W 122°25'612.6
2017-Oct-10 23:00N 37°57' W 122°30'1021.4
2017-Oct-10 22:31N 37°48' W 122°24'1019.0
2017-Oct-10 22:00N 37°56' W 122°29'1 2.1
2017-Oct-10 21:30N 37°57' W 122°31'0 0.0
2017-Oct-10 21:00N 37°57' W 122°31'0 0.0
2017-Oct-10 20:30N 37°57' W 122°31'0 0.0
2017-Oct-10 20:00N 37°57' W 122°31'0 0.0
2017-Oct-10 19:30N 37°57' W 122°31'0 0.0
2017-Oct-10 19:00N 37°57' W 122°31'0 0.9
2017-Oct-10 18:30N 37°56' W 122°30'1020.6
2017-Oct-10 18:01N 37°48' W 122°23'510.0
2017-Oct-10 17:31N 37°53' W 122°26'610.6
2017-Oct-10 16:59N 37°57' W 122°30'3 7.0
2017-Oct-10 16:30N 37°55' W 122°27'815.1
2017-Oct-10 16:00N 37°48' W 122°24'1019.0
2017-Oct-10 15:30N 37°56' W 122°30'0 0.5
2017-Oct-10 15:01N 37°56' W 122°29'1 1.0
2017-Oct-10 13:57N 37°57' W 122°30'1023.4
2017-Oct-10 13:31N 37°48' W 122°24'1019.2
2017-Oct-10 13:00N 37°56' W 122°30'1 1.3
2017-Oct-10 12:30N 37°57' W 122°30'0 0.0
2017-Oct-10 02:50N 37°57' W 122°30'825.4
2017-Oct-10 02:31N 37°50' W 122°24'4 7.5
2017-Oct-10 02:01N 37°53' W 122°26'5 9.3
2017-Oct-10 01:30N 37°57' W 122°31'1121.0
2017-Oct-10 01:00N 37°48' W 122°24'3 6.6
2017-Oct-10 00:30N 37°51' W 122°24'714.7
2017-Oct-10 00:00N 37°57' W 122°30'1021.0
2017-Oct-09 23:30N 37°48' W 122°24'5 9.5
2017-Oct-09 23:00N 37°52' W 122°25'610.8
2017-Oct-09 22:27N 37°57' W 122°30'1023.4
2017-Oct-09 22:00N 37°48' W 122°24'611.7
2017-Oct-09 21:31N 37°53' W 122°26'5 7.2
2017-Oct-09 20:51N 37°57' W 122°30'927.6
2017-Oct-09 20:31N 37°49' W 122°23'2 3.6
2017-Oct-09 20:01N 37°51' W 122°24'813.5
2017-Oct-09 19:26N 37°57' W 122°30'1023.8
2017-Oct-09 19:01N 37°48' W 122°23'4 8.5
2017-Oct-09 18:31N 37°52' W 122°25'612.2
2017-Oct-09 18:00N 37°57' W 122°30'4 7.3
2017-Oct-09 17:30N 37°54' W 122°27'714.3
2017-Oct-09 17:00N 37°48' W 122°24'814.9
2017-Oct-09 16:30N 37°55' W 122°27'3 5.5
2017-Oct-09 15:59N 37°56' W 122°30'1021.1
2017-Oct-09 15:31N 37°48' W 122°24'1017.5
2017-Oct-09 14:56N 37°56' W 122°30'1 2.3
2017-Oct-09 14:30N 37°56' W 122°29'918.0
2017-Oct-09 14:01N 37°48' W 122°23'1020.1
2017-Oct-09 13:30N 37°57' W 122°30'  
Track history (hours):
 
Tides and Currents Weather Stations Pressure Air Temp Water Temp Dewpoint Dewpoint Depression Visibility Wind Speed Wind Dir Waves Ship Positions

Napa

Owner: Golden Gate Bridge Hwy. and Transportation District, San Francisco, CA. More information available from US FCC via Universal Licensing System and Coast Guard Vessel Documentation Center.

Last reported at 2017-Oct-17 02:01 UTC. Time now 2017-Oct-17 02:21 UTC.
Position N 37°52' W 122°25'.

Length 38 m; draft 0.15 m.

Type: Passenger vessel. MMSI: 36677150.

Date/timePositionNaut miles runAvg speedWind from/ knotsBaromVisibWave heightAir tempDewpointWater temp
2017-Oct-17 02:01N 37°52' W 122°25'713.5
2017-Oct-17 01:30N 37°57' W 122°30'1020.8
2017-Oct-17 01:00N 37°48' W 122°24'510.0
2017-Oct-17 00:31N 37°53' W 122°25'611.5
2017-Oct-17 00:00N 37°57' W 122°30'1020.9
2017-Oct-16 23:31N 37°48' W 122°24'4 7.3
2017-Oct-16 23:01N 37°51' W 122°25'714.1
2017-Oct-16 22:30N 37°57' W 122°30'1021.0
2017-Oct-16 22:01N 37°48' W 122°24'714.3
2017-Oct-16 21:31N 37°54' W 122°27'4 7.2
2017-Oct-16 21:00N 37°57' W 122°31'0 0.0
2017-Oct-16 20:30N 37°57' W 122°31'0 0.0
2017-Oct-16 20:00N 37°57' W 122°31'0 0.0
2017-Oct-16 19:30N 37°57' W 122°31'0 0.0
2017-Oct-16 19:00N 37°57' W 122°31'0 0.0
2017-Oct-16 18:30N 37°57' W 122°31'1020.8
2017-Oct-16 18:00N 37°48' W 122°23'4 8.7
2017-Oct-16 17:31N 37°52' W 122°25'612.4
2017-Oct-16 17:00N 37°57' W 122°30'3 5.9
2017-Oct-16 16:30N 37°55' W 122°27'816.0
2017-Oct-16 16:00N 37°48' W 122°24'918.8
2017-Oct-16 15:31N 37°56' W 122°29'1 1.2
2017-Oct-16 15:00N 37°56' W 122°30'1 0.7
2017-Oct-16 14:00N 37°57' W 122°30'917.2
2017-Oct-16 13:31N 37°50' W 122°24'713.2
2017-Oct-16 13:01N 37°56' W 122°28'2 4.4
2017-Oct-16 12:30N 37°57' W 122°31'  
2017-Oct-14 05:04N 37°57' W 122°30'0 8.2
2017-Oct-14 05:00N 37°56' W 122°30'1019.9
2017-Oct-14 04:31N 37°48' W 122°24'1019.8
2017-Oct-14 03:59N 37°57' W 122°30'4 9.1
2017-Oct-14 03:31N 37°54' W 122°26'612.5
2017-Oct-14 03:00N 37°48' W 122°23'1020.5
2017-Oct-14 02:30N 37°57' W 122°30'0 0.2
2017-Oct-14 02:00N 37°57' W 122°30'1021.3
2017-Oct-14 01:30N 37°48' W 122°24'4 7.4
2017-Oct-14 01:01N 37°51' W 122°25'713.0
2017-Oct-14 00:30N 37°56' W 122°30'1020.7
2017-Oct-14 00:00N 37°48' W 122°24'611.1
2017-Oct-13 23:30N 37°53' W 122°26'510.2
2017-Oct-13 23:01N 37°57' W 122°30'1020.7
2017-Oct-13 22:31N 37°48' W 122°24'1019.7
2017-Oct-13 22:00N 37°56' W 122°30'1 1.3
2017-Oct-13 21:30N 37°57' W 122°30'0 0.0
2017-Oct-13 21:00N 37°57' W 122°30'1020.4
2017-Oct-13 20:31N 37°48' W 122°23'4 8.6
2017-Oct-13 20:00N 37°52' W 122°25'612.0
2017-Oct-13 19:30N 37°57' W 122°30'1019.2
2017-Oct-13 19:00N 37°49' W 122°23'3 6.5
2017-Oct-13 18:30N 37°52' W 122°25'612.8
2017-Oct-13 18:00N 37°57' W 122°30'2 5.0
2017-Oct-13 17:31N 37°55' W 122°28'816.6
2017-Oct-13 17:01N 37°48' W 122°24'713.3
2017-Oct-13 16:31N 37°54' W 122°27'4 7.8
2017-Oct-13 16:00N 37°57' W 122°30'1020.9
2017-Oct-13 15:30N 37°48' W 122°24'1018.3
2017-Oct-13 14:58N 37°56' W 122°30'4 8.4
2017-Oct-13 14:30N 37°54' W 122°26'4 9.0
2017-Oct-13 14:01N 37°50' W 122°24'9 0.8
2017-Oct-13 02:49N 37°57' W 122°30'824.8
2017-Oct-13 02:31N 37°51' W 122°24'2 4.7
2017-Oct-13 02:01N 37°53' W 122°26'611.2
2017-Oct-13 01:30N 37°57' W 122°30'1020.9
2017-Oct-13 01:00N 37°48' W 122°24'5 9.8
2017-Oct-13 00:31N 37°52' W 122°25'611.3
2017-Oct-13 00:00N 37°57' W 122°30'1021.0
2017-Oct-12 23:30N 37°48' W 122°24'5 9.4
2017-Oct-12 23:00N 37°52' W 122°25'611.9
2017-Oct-12 22:30N 37°57' W 122°30'1021.1
2017-Oct-12 22:00N 37°48' W 122°24'714.0
2017-Oct-12 21:30N 37°54' W 122°27'4 7.5
2017-Oct-12 21:00N 37°57' W 122°31'0 0.0
2017-Oct-12 20:30N 37°57' W 122°31'0 0.0
2017-Oct-12 20:00N 37°57' W 122°31'0 0.0
2017-Oct-12 19:30N 37°57' W 122°31'0 0.0
2017-Oct-12 19:00N 37°57' W 122°31'0 0.1
2017-Oct-12 18:30N 37°57' W 122°30'1021.1
2017-Oct-12 18:01N 37°48' W 122°23'5 9.9
2017-Oct-12 17:31N 37°53' W 122°25'611.3
2017-Oct-12 17:00N 37°57' W 122°30'3 5.6
2017-Oct-12 16:31N 37°55' W 122°27'816.2
2017-Oct-12 16:00N 37°48' W 122°24'1019.1
2017-Oct-12 15:30N 37°56' W 122°29'0 0.1
2017-Oct-12 15:01N 37°56' W 122°29'918.9
2017-Oct-12 14:30N 37°48' W 122°23'1020.8
2017-Oct-12 14:00N 37°57' W 122°30'1020.4
2017-Oct-12 13:31N 37°48' W 122°23'816.1
2017-Oct-12 13:00N 37°55' W 122°28'2 4.8
2017-Oct-12 12:31N 37°57' W 122°30'0 0.0
2017-Oct-12 05:15N 37°57' W 122°30'311.7
2017-Oct-12 05:01N 37°55' W 122°27'714.0
2017-Oct-12 04:30N 37°49' W 122°23'918.0
2017-Oct-12 04:00N 37°56' W 122°30'2 4.4
2017-Oct-12 03:31N 37°55' W 122°28'815.3
2017-Oct-12 03:00N 37°48' W 122°23'1020.3
2017-Oct-12 02:30N 37°57' W 122°30'0 0.5
2017-Oct-12 02:01N 37°57' W 122°30'1020.5
2017-Oct-12 01:30N 37°48' W 122°24'4 8.5
2017-Oct-12 01:01N 37°52' W 122°25'713.0
2017-Oct-12 00:30N 37°57' W 122°30'1020.7
2017-Oct-12 00:00N 37°48' W 122°24'4 8.6
2017-Oct-11 23:31N 37°52' W 122°25'612.4
2017-Oct-11 23:00N 37°57' W 122°30'1020.8
2017-Oct-11 22:30N 37°48' W 122°24'1019.7
2017-Oct-11 22:00N 37°56' W 122°30'1 1.4
2017-Oct-11 21:31N 37°57' W 122°30'0 0.0
2017-Oct-11 21:01N 37°57' W 122°30'1020.7
2017-Oct-11 20:31N 37°48' W 122°23'5 9.5
2017-Oct-11 20:01N 37°52' W 122°25'611.6
2017-Oct-11 19:30N 37°57' W 122°30'1020.8
2017-Oct-11 19:01N 37°48' W 122°23'4 8.6
2017-Oct-11 18:31N 37°52' W 122°25'612.1
2017-Oct-11 18:00N 37°57' W 122°31'2 4.4
2017-Oct-11 17:31N 37°56' W 122°28'917.3
2017-Oct-11 17:00N 37°48' W 122°24'0 0.0
2017-Oct-11 00:00N 37°48' W 122°24'4 8.7
2017-Oct-10 23:31N 37°52' W 122°25'612.6
2017-Oct-10 23:00N 37°57' W 122°30'1021.4
2017-Oct-10 22:31N 37°48' W 122°24'1019.0
2017-Oct-10 22:00N 37°56' W 122°29'1 2.1
2017-Oct-10 21:30N 37°57' W 122°31'0 0.0
2017-Oct-10 21:00N 37°57' W 122°31'0 0.0
2017-Oct-10 20:30N 37°57' W 122°31'0 0.0
2017-Oct-10 20:00N 37°57' W 122°31'0 0.0
2017-Oct-10 19:30N 37°57' W 122°31'0 0.0
2017-Oct-10 19:00N 37°57' W 122°31'0 0.9
2017-Oct-10 18:30N 37°56' W 122°30'1020.6
2017-Oct-10 18:01N 37°48' W 122°23'510.0
2017-Oct-10 17:31N 37°53' W 122°26'610.6
2017-Oct-10 16:59N 37°57' W 122°30'3 7.0
2017-Oct-10 16:30N 37°55' W 122°27'815.1
2017-Oct-10 16:00N 37°48' W 122°24'1019.0
2017-Oct-10 15:30N 37°56' W 122°30'0 0.5
2017-Oct-10 15:01N 37°56' W 122°29'1 1.0
2017-Oct-10 13:57N 37°57' W 122°30'1023.4
2017-Oct-10 13:31N 37°48' W 122°24'1019.2
2017-Oct-10 13:00N 37°56' W 122°30'1 1.3
2017-Oct-10 12:30N 37°57' W 122°30'0 0.0
2017-Oct-10 02:50N 37°57' W 122°30'825.4
2017-Oct-10 02:31N 37°50' W 122°24'4 7.5
2017-Oct-10 02:01N 37°53' W 122°26'5 9.3
2017-Oct-10 01:30N 37°57' W 122°31'1121.0
2017-Oct-10 01:00N 37°48' W 122°24'3 6.6
2017-Oct-10 00:30N 37°51' W 122°24'714.7
2017-Oct-10 00:00N 37°57' W 122°30'1021.0
2017-Oct-09 23:30N 37°48' W 122°24'5 9.5
2017-Oct-09 23:00N 37°52' W 122°25'610.8
2017-Oct-09 22:27N 37°57' W 122°30'1023.4
2017-Oct-09 22:00N 37°48' W 122°24'611.7
2017-Oct-09 21:31N 37°53' W 122°26'5 7.2
2017-Oct-09 20:51N 37°57' W 122°30'927.6
2017-Oct-09 20:31N 37°49' W 122°23'2 3.6
2017-Oct-09 20:01N 37°51' W 122°24'813.5
2017-Oct-09 19:26N 37°57' W 122°30'1023.8
2017-Oct-09 19:01N 37°48' W 122°23'4 8.5
2017-Oct-09 18:31N 37°52' W 122°25'612.2
2017-Oct-09 18:00N 37°57' W 122°30'4 7.3
2017-Oct-09 17:30N 37°54' W 122°27'714.3
2017-Oct-09 17:00N 37°48' W 122°24'814.9
2017-Oct-09 16:30N 37°55' W 122°27'3 5.5
2017-Oct-09 15:59N 37°56' W 122°30'1021.1
2017-Oct-09 15:31N 37°48' W 122°24'1017.5
2017-Oct-09 14:56N 37°56' W 122°30'1 2.3
2017-Oct-09 14:30N 37°56' W 122°29'918.0
2017-Oct-09 14:01N 37°48' W 122°23'1020.1
2017-Oct-09 13:30N 37°57' W 122°30'  

Dump ship's entire track history